Time;durP1;ratioP1;P1;durP2;ratioP2;P2;SDS_P1;SDS_P2;PMS_P1;PMS_P2;Temp;Humidity;BMP_temperature;BMP_pressure;BME280_temperature;BME280_humidity;BME280_pressure;Samples;Min_cycle;Max_cycle;Signal;HPM_P1;HPM_P2
2022/04/28 00:00:56;;;;;;;15.40;11.43;;;19.60;99.90;;;;;;5090111;28;20214;-66
2022/04/28 00:03:24;;;;;;;20.23;11.10;;;19.60;99.90;;;;;;5092958;28;20187;-66
2022/04/28 00:05:52;;;;;;;15.63;10.73;;;19.60;99.90;;;;;;5092767;28;20187;-67
2022/04/28 00:08:20;;;;;;;12.30;9.77;;;19.60;99.90;;;;;;5092482;28;20601;-68
2022/04/28 00:10:48;;;;;;;16.07;10.70;;;19.60;99.90;;;;;;5092281;28;20653;-68
2022/04/28 00:13:15;;;;;;;15.90;9.50;;;19.60;99.90;;;;;;5092873;28;20220;-68
2022/04/28 00:15:43;;;;;;;10.77;7.83;;;19.70;99.90;;;;;;5092604;28;20754;-67
2022/04/28 00:18:11;;;;;;;17.97;10.50;;;19.60;99.90;;;;;;5092200;28;20179;-67
2022/04/28 00:20:39;;;;;;;19.90;10.43;;;19.40;99.90;;;;;;5091673;28;20215;-68
2022/04/28 00:23:07;;;;;;;18.27;10.50;;;19.40;99.90;;;;;;5089746;28;20179;-67
2022/04/28 00:25:34;;;;;;;17.37;11.33;;;19.50;99.90;;;;;;5092033;28;20201;-66
2022/04/28 00:28:02;;;;;;;14.73;9.90;;;19.50;99.90;;;;;;5091833;28;20278;-67
2022/04/28 00:30:30;;;;;;;11.33;8.00;;;19.60;99.90;;;;;;5092289;28;20188;-68
2022/04/28 00:32:58;;;;;;;9.23;6.97;;;19.70;99.90;;;;;;5091353;28;20190;-69
2022/04/28 00:35:25;;;;;;;7.60;5.13;;;19.50;99.90;;;;;;5091243;28;20262;-68
2022/04/28 00:37:53;;;;;;;7.57;4.57;;;19.50;99.90;;;;;;5091455;28;20270;-67
2022/04/28 00:40:21;;;;;;;9.30;5.40;;;19.40;99.90;;;;;;5091850;28;20215;-68
2022/04/28 00:42:48;;;;;;;8.67;4.83;;;19.40;99.90;;;;;;5091938;28;20703;-68
2022/04/28 00:45:16;;;;;;;8.10;5.20;;;19.30;99.90;;;;;;5091766;28;20652;-67
2022/04/28 00:50:39;;;;;;;6.37;5.13;;;19.40;99.90;;;;;;5091672;28;20193;-67
2022/04/28 00:53:12;;;;;;;11.33;5.00;;;19.60;99.90;;;;;;5091998;28;20174;-69
2022/04/28 00:55:43;;;;;;;8.10;5.60;;;19.60;99.90;;;;;;5091539;28;20211;-68
2022/04/28 00:58:12;;;;;;;12.07;5.00;;;19.90;99.90;;;;;;5091912;28;20185;-68
2022/04/28 01:00:41;;;;;;;7.60;4.67;;;20.10;99.90;;;;;;5091839;28;20210;-69
2022/04/28 01:03:09;;;;;;;5.00;3.37;;;20.20;99.90;;;;;;5091970;28;20186;-67
2022/04/28 01:05:40;;;;;;;6.53;3.83;;;20.10;99.90;;;;;;5091579;28;20733;-67
2022/04/28 01:08:08;;;;;;;4.50;3.63;;;20.10;99.90;;;;;;5091177;28;20182;-67
2022/04/28 01:10:38;;;;;;;6.93;3.70;;;20.20;99.90;;;;;;5084350;28;20187;-67
2022/04/28 01:13:06;;;;;;;7.93;3.90;;;20.30;99.90;;;;;;5091911;28;20181;-67
2022/04/28 01:15:44;;;;;;;3.50;3.20;;;20.50;99.90;;;;;;5091865;28;20234;-67
2022/04/28 01:18:12;;;;;;;5.20;3.60;;;20.70;99.90;;;;;;5091971;28;20202;-66
2022/04/28 01:20:41;;;;;;;6.50;3.67;;;20.70;99.90;;;;;;5091805;28;20209;-67
2022/04/28 01:23:09;;;;;;;5.40;3.03;;;20.80;99.90;;;;;;5091873;28;20179;-66
2022/04/28 01:25:37;;;;;;;7.00;2.70;;;21.00;99.90;;;;;;5091722;28;20615;-68
2022/04/28 01:28:05;;;;;;;10.70;3.10;;;21.10;99.90;;;;;;5091857;28;20656;-67
2022/04/28 01:30:36;;;;;;;4.63;2.93;;;21.10;99.90;;;;;;5091489;28;20575;-67
2022/04/28 01:33:04;;;;;;;5.50;3.20;;;21.00;99.90;;;;;;5095114;28;20173;-67
2022/04/28 01:35:32;;;;;;;5.20;2.30;;;21.00;99.90;;;;;;5095863;28;20231;-68
2022/04/28 01:38:01;;;;;;;4.53;2.33;;;21.20;99.90;;;;;;5095944;28;20682;-68
2022/04/28 01:40:29;;;;;;;4.47;2.00;;;21.20;99.90;;;;;;5095639;28;20258;-68
2022/04/28 01:42:56;;;;;;;2.50;1.57;;;21.30;99.90;;;;;;5095974;28;20282;-68
2022/04/28 01:45:24;;;;;;;1.97;1.40;;;21.30;99.90;;;;;;5095201;28;20646;-68
2022/04/28 01:47:52;;;;;;;4.83;1.77;;;21.20;99.90;;;;;;5095248;28;20266;-67
2022/04/28 01:50:19;;;;;;;2.43;1.60;;;21.00;99.90;;;;;;5094357;28;20195;-68
2022/04/28 01:55:33;;;;;;;1.70;1.47;;;21.10;99.90;;;;;;5095462;28;20237;-68
2022/04/28 01:58:01;;;;;;;1.83;1.50;;;21.10;99.90;;;;;;5095396;28;20190;-68
2022/04/28 02:00:29;;;;;;;5.67;1.50;;;21.20;99.90;;;;;;5095239;28;20653;-69
2022/04/28 02:02:57;;;;;;;3.10;1.80;;;21.20;99.90;;;;;;5095402;28;20186;-69
2022/04/28 02:05:24;;;;;;;4.10;1.70;;;21.10;99.90;;;;;;5095322;28;20199;-69
2022/04/28 02:07:52;;;;;;;2.00;1.40;;;21.00;99.90;;;;;;5095118;28;20625;-69
2022/04/28 02:10:20;;;;;;;2.70;1.50;;;21.00;99.90;;;;;;5095219;28;20194;-69
2022/04/28 02:12:48;;;;;;;4.73;1.80;;;20.90;99.90;;;;;;5095229;28;20184;-69
2022/04/28 02:15:15;;;;;;;2.40;1.77;;;20.80;99.90;;;;;;5094985;28;20699;-69
2022/04/28 02:17:43;;;;;;;3.23;1.80;;;20.80;99.90;;;;;;5095133;28;20208;-69
2022/04/28 02:20:12;;;;;;;3.30;1.80;;;20.70;99.90;;;;;;5093821;28;20607;-69
2022/04/28 02:22:39;;;;;;;4.37;2.17;;;20.70;99.90;;;;;;5094898;28;20536;-69
2022/04/28 02:25:08;;;;;;;3.23;1.80;;;20.60;99.90;;;;;;5094135;28;20212;-69
2022/04/28 02:27:35;;;;;;;4.17;2.30;;;20.50;99.90;;;;;;5094316;28;20581;-69
2022/04/28 02:30:04;;;;;;;9.60;3.17;;;20.30;99.90;;;;;;5094857;28;20259;-68
2022/04/28 02:33:08;;;;;;;7.23;3.27;;;20.10;99.90;;;;;;5094946;28;20184;-69
2022/04/28 02:35:21;;;;;;;7.60;2.93;;;20.00;99.90;;;;;;5094665;28;20183;-68
2022/04/28 02:37:48;;;;;;;10.43;4.23;;;19.90;99.90;;;;;;5094548;28;20661;-68
2022/04/28 02:40:16;;;;;;;12.73;5.20;;;19.80;99.90;;;;;;5095080;28;20214;-68
2022/04/28 02:42:44;;;;;;;9.67;4.70;;;19.70;99.90;;;;;;5094036;28;20180;-68
2022/04/28 02:45:11;;;;;;;8.87;4.53;;;19.70;99.90;;;;;;5094305;28;20176;-68
2022/04/28 02:47:40;;;;;;;10.07;3.87;;;19.80;99.90;;;;;;5094144;28;20211;-68
2022/04/28 02:50:11;;;;;;;12.60;4.27;;;19.80;99.90;;;;;;5093435;28;20214;-67
2022/04/28 02:52:39;;;;;;;7.77;4.40;;;19.80;99.90;;;;;;5093540;28;20233;-69
2022/04/28 02:55:10;;;;;;;6.70;3.87;;;19.80;99.90;;;;;;5094324;28;20309;-69
2022/04/28 02:57:38;;;;;;;6.57;3.67;;;20.00;99.90;;;;;;5093590;28;20179;-69
2022/04/28 03:00:06;;;;;;;3.87;2.83;;;20.10;99.90;;;;;;5093866;28;20263;-69
2022/04/28 03:02:35;;;;;;;4.97;4.07;;;20.00;99.90;;;;;;5091190;28;20187;-69
2022/04/28 03:05:04;;;;;;;3.33;2.70;;;20.00;99.90;;;;;;5093650;28;20211;-69
2022/04/28 03:13:04;;;;;;;4.37;2.53;;;19.90;99.90;;;;;;5094165;28;20228;-69
2022/04/28 03:15:31;;;;;;;5.73;2.40;;;19.80;99.90;;;;;;5093808;28;20230;-69
2022/04/28 03:17:59;;;;;;;10.37;4.73;;;19.70;99.90;;;;;;5093843;28;20168;-69
2022/04/28 03:20:27;;;;;;;6.77;3.73;;;19.70;99.90;;;;;;5094046;28;20206;-69
2022/04/28 03:22:55;;;;;;;10.30;3.73;;;19.70;99.90;;;;;;5093718;28;20197;-69
2022/04/28 03:25:22;;;;;;;8.20;3.70;;;19.70;99.90;;;;;;5093797;28;20262;-68
2022/04/28 03:27:50;;;;;;;7.40;4.33;;;19.70;99.90;;;;;;5093687;28;20269;-68
2022/04/28 03:30:18;;;;;;;6.60;3.53;;;19.70;99.90;;;;;;5093754;28;20282;-68
2022/04/28 03:32:45;;;;;;;6.77;4.10;;;19.70;99.90;;;;;;5093696;28;20178;-68
2022/04/28 03:35:14;;;;;;;7.47;4.73;;;19.70;99.90;;;;;;5093704;28;20573;-68
2022/04/28 03:37:47;;;;;;;7.80;4.57;;;19.70;99.90;;;;;;5092320;28;20652;-70
2022/04/28 03:40:16;;;;;;;4.97;4.17;;;19.70;99.90;;;;;;5092946;28;20305;-70
2022/04/28 03:42:46;;;;;;;5.60;4.10;;;19.70;99.90;;;;;;5093236;28;20191;-69
2022/04/28 03:45:14;;;;;;;7.83;3.10;;;19.70;99.90;;;;;;5092703;28;20183;-70
2022/04/28 03:47:42;;;;;;;3.30;3.00;;;19.60;99.90;;;;;;5092328;28;20179;-69
2022/04/28 03:50:10;;;;;;;3.60;2.40;;;19.60;99.90;;;;;;5092969;28;20218;-69
2022/04/28 03:52:38;;;;;;;6.07;2.60;;;19.60;99.90;;;;;;5092548;28;20226;-69
2022/04/28 03:55:06;;;;;;;6.70;2.90;;;19.70;99.90;;;;;;5091685;28;20187;-70
2022/04/28 03:57:34;;;;;;;3.63;3.17;;;19.70;99.90;;;;;;5093070;28;20184;-67
2022/04/28 04:00:03;;;;;;;4.30;2.53;;;19.70;99.90;;;;;;5092142;28;20218;-68
2022/04/28 04:02:31;;;;;;;5.57;2.83;;;19.70;99.90;;;;;;5088311;28;20187;-69
2022/04/28 04:04:59;;;;;;;5.13;3.50;;;19.70;99.90;;;;;;5093022;28;20186;-69
2022/04/28 04:07:31;;;;;;;5.30;2.73;;;19.70;99.90;;;;;;5091592;28;20193;-69
2022/04/28 04:10:00;;;;;;;4.50;3.20;;;19.70;99.90;;;;;;5092888;28;20179;-68
2022/04/28 04:12:28;;;;;;;8.93;3.40;;;19.70;99.90;;;;;;5092896;28;20270;-68
2022/04/28 04:14:55;;;;;;;4.63;2.93;;;19.70;99.90;;;;;;5092153;28;20305;-68
2022/04/28 04:17:23;;;;;;;3.20;2.60;;;19.60;99.90;;;;;;5092075;28;20217;-68
2022/04/28 04:19:51;;;;;;;6.33;2.97;;;19.60;99.90;;;;;;5092058;28;20820;-67
2022/04/28 04:22:19;;;;;;;9.87;3.70;;;19.60;99.90;;;;;;5092091;28;20226;-69
2022/04/28 04:24:46;;;;;;;5.10;2.67;;;19.70;99.90;;;;;;5092419;28;20648;-69
2022/04/28 04:27:16;;;;;;;6.53;3.00;;;19.70;99.90;;;;;;5092591;28;20183;-69
2022/04/28 04:29:43;;;;;;;5.13;2.23;;;19.70;99.90;;;;;;5092332;28;20179;-69
2022/04/28 04:32:26;;;;;;;3.30;2.30;;;19.60;99.90;;;;;;5090259;28;20686;-68
2022/04/28 04:34:54;;;;;;;4.03;2.20;;;19.70;99.90;;;;;;5092388;28;20206;-70
2022/04/28 04:37:22;;;;;;;6.13;2.43;;;19.70;99.90;;;;;;5091519;28;20528;-70
2022/04/28 04:39:50;;;;;;;5.20;2.40;;;19.80;99.90;;;;;;5091778;28;20214;-69
2022/04/28 04:42:17;;;;;;;2.67;2.27;;;19.80;99.90;;;;;;5090646;28;20218;-69
2022/04/28 04:44:45;;;;;;;4.40;3.00;;;19.80;99.90;;;;;;5092350;28;20179;-69
2022/04/28 04:47:13;;;;;;;4.80;2.37;;;19.90;99.90;;;;;;5092013;28;20178;-69
2022/04/28 04:49:41;;;;;;;7.97;2.83;;;19.90;99.90;;;;;;5092247;28;20664;-69
2022/04/28 04:52:08;;;;;;;3.33;2.30;;;19.90;99.90;;;;;;5091985;28;20186;-69
2022/04/28 04:54:36;;;;;;;6.50;2.30;;;19.90;99.90;;;;;;5092166;28;20221;-69
2022/04/28 04:57:04;;;;;;;4.57;2.30;;;19.90;99.90;;;;;;5092170;28;20541;-69
2022/04/28 04:59:31;;;;;;;6.73;2.60;;;19.90;99.90;;;;;;5092072;28;20170;-69
2022/04/28 05:01:59;;;;;;;6.00;2.50;;;19.90;99.90;;;;;;5092054;28;20308;-69
2022/04/28 05:04:27;;;;;;;3.33;2.83;;;19.90;99.90;;;;;;5092092;28;20255;-69
2022/04/28 05:06:54;;;;;;;3.83;2.83;;;20.00;99.90;;;;;;5092043;28;20537;-69
2022/04/28 05:09:22;;;;;;;3.33;2.87;;;20.00;99.90;;;;;;5092329;28;20559;-69
2022/04/28 05:11:51;;;;;;;8.97;3.37;;;20.10;99.90;;;;;;5091901;28;20265;-70
2022/04/28 05:14:19;;;;;;;4.93;2.73;;;20.10;99.90;;;;;;5091991;28;20180;-70
2022/04/28 05:16:46;;;;;;;4.33;3.10;;;20.10;99.90;;;;;;5091992;28;20197;-69
2022/04/28 05:19:14;;;;;;;5.00;3.20;;;20.10;99.90;;;;;;5091744;28;20180;-69
2022/04/28 05:21:42;;;;;;;6.43;3.13;;;20.10;99.90;;;;;;5091584;28;20191;-68
2022/04/28 05:24:10;;;;;;;4.87;3.50;;;20.20;99.90;;;;;;5092077;28;20192;-69
2022/04/28 05:26:37;;;;;;;7.43;3.50;;;20.10;99.90;;;;;;5091777;28;20171;-69
2022/04/28 05:29:05;;;;;;;6.27;3.40;;;20.20;99.90;;;;;;5091370;28;20212;-68
2022/04/28 05:31:33;;;;;;;5.30;3.00;;;20.30;99.90;;;;;;5090073;28;20209;-68
2022/04/28 05:34:01;;;;;;;4.70;2.40;;;20.30;99.90;;;;;;5091368;28;20187;-68
2022/04/28 05:36:29;;;;;;;4.80;2.43;;;20.30;99.90;;;;;;5091674;28;20183;-68
2022/04/28 05:39:00;;;;;;;3.67;2.50;;;20.30;99.90;;;;;;5091807;28;20186;-68
2022/04/28 05:41:29;;;;;;;3.43;1.83;;;20.30;99.90;;;;;;5091598;28;20229;-68
2022/04/28 05:46:42;;;;;;;4.23;1.87;;;20.20;99.90;;;;;;5091737;28;20758;-69
2022/04/28 05:49:10;;;;;;;2.20;1.70;;;20.30;99.90;;;;;;5091601;28;20172;-69
2022/04/28 05:51:40;;;;;;;5.10;1.93;;;20.30;99.90;;;;;;5091370;28;20237;-69
2022/04/28 05:54:08;;;;;;;4.77;2.10;;;20.30;99.90;;;;;;5091595;28;20194;-69
2022/04/28 05:56:35;;;;;;;3.43;2.03;;;20.30;99.90;;;;;;5091599;28;20175;-69
2022/04/28 05:59:04;;;;;;;4.97;2.17;;;20.20;99.90;;;;;;5091578;28;20206;-69
2022/04/28 06:01:31;;;;;;;3.57;2.33;;;20.20;99.90;;;;;;5090280;28;20771;-69
2022/04/28 06:03:59;;;;;;;3.97;2.47;;;20.20;99.90;;;;;;5091419;28;20225;-69
2022/04/28 06:06:27;;;;;;;5.83;2.80;;;20.20;99.90;;;;;;5091396;28;20257;-68
2022/04/28 06:08:54;;;;;;;4.87;2.20;;;20.20;99.90;;;;;;5091386;28;20225;-68
2022/04/28 06:11:22;;;;;;;6.10;2.50;;;20.20;99.90;;;;;;5091406;28;20183;-69
2022/04/28 06:13:50;;;;;;;3.90;2.00;;;20.20;99.90;;;;;;5091389;28;20258;-69
2022/04/28 06:16:18;;;;;;;3.17;1.90;;;20.10;99.90;;;;;;5090423;28;20231;-70
2022/04/28 06:18:45;;;;;;;3.63;2.63;;;20.10;99.90;;;;;;5093855;28;20571;-68
2022/04/28 06:21:13;;;;;;;5.67;2.03;;;20.10;99.90;;;;;;5094642;28;20233;-69
2022/04/28 06:23:41;;;;;;;5.17;1.67;;;20.00;99.90;;;;;;5094897;28;20235;-69
2022/04/28 06:26:08;;;;;;;5.37;1.90;;;20.00;99.90;;;;;;5094656;28;20210;-69
2022/04/28 06:28:36;;;;;;;3.00;1.77;;;20.00;99.90;;;;;;5093468;28;20220;-69
2022/04/28 06:31:04;;;;;;;1.97;1.60;;;20.00;99.90;;;;;;5094801;28;20265;-68
2022/04/28 06:33:31;;;;;;;3.87;1.50;;;20.00;99.90;;;;;;5094567;28;20262;-69
2022/04/28 06:35:59;;;;;;;1.53;1.40;;;20.00;99.90;;;;;;5094482;28;20660;-69
2022/04/28 06:38:27;;;;;;;3.90;1.53;;;20.10;99.90;;;;;;5094563;28;20187;-69
2022/04/28 06:40:55;;;;;;;4.57;1.70;;;20.10;99.90;;;;;;5094719;28;20211;-69
2022/04/28 06:43:23;;;;;;;4.90;1.70;;;20.00;99.90;;;;;;5088460;28;20182;-69
2022/04/28 06:48:37;;;;;;;2.20;1.47;;;20.00;99.90;;;;;;5094300;28;20218;-69
2022/04/28 06:51:04;;;;;;;1.97;1.20;;;20.00;99.90;;;;;;5094163;28;20211;-69
2022/04/28 06:53:32;;;;;;;5.63;1.60;;;20.00;99.90;;;;;;5094439;28;20652;-68
2022/04/28 06:56:00;;;;;;;6.37;2.07;;;20.00;99.90;;;;;;5093765;28;20244;-68
2022/04/28 06:58:27;;;;;;;4.23;1.63;;;20.00;99.90;;;;;;5094127;28;20531;-68
2022/04/28 07:00:55;;;;;;;2.60;1.60;;;20.00;99.90;;;;;;5094002;28;20234;-68
2022/04/28 07:03:23;;;;;;;2.47;1.10;;;20.00;99.90;;;;;;5094264;28;20172;-68
2022/04/28 07:05:53;;;;;;;4.97;1.40;;;20.00;99.90;;;;;;5094116;28;20271;-68
2022/04/28 07:08:21;;;;;;;4.07;1.47;;;19.90;99.90;;;;;;5094078;28;20201;-68
2022/04/28 07:10:48;;;;;;;4.33;1.50;;;19.90;99.90;;;;;;5094060;28;20213;-68
2022/04/28 07:13:17;;;;;;;2.60;1.00;;;19.90;99.90;;;;;;5092728;28;20248;-68
2022/04/28 07:15:44;;;;;;;3.97;1.30;;;19.90;99.90;;;;;;5093846;28;20284;-68
2022/04/28 07:18:12;;;;;;;2.90;1.50;;;19.80;99.90;;;;;;5094068;28;20596;-68
2022/04/28 07:20:47;;;;;;;2.57;1.60;;;19.80;99.90;;;;;;5093697;28;20207;-68
2022/04/28 07:23:16;;;;;;;3.30;1.70;;;19.80;99.90;;;;;;5093956;28;20576;-68
2022/04/28 07:25:44;;;;;;;5.43;2.07;;;19.70;99.90;;;;;;5091949;28;20300;-68
2022/04/28 07:28:11;;;;;;;2.07;1.40;;;19.70;99.90;;;;;;5092451;28;20223;-68
2022/04/28 07:30:39;;;;;;;4.20;1.60;;;19.70;99.90;;;;;;5092007;28;20190;-67
2022/04/28 07:33:08;;;;;;;3.00;0.90;;;19.70;99.90;;;;;;5093145;28;20537;-68
2022/04/28 07:35:36;;;;;;;4.50;1.37;;;19.60;99.90;;;;;;5093690;28;20180;-68
2022/04/28 07:38:04;;;;;;;3.30;1.30;;;19.60;99.90;;;;;;5093425;28;20171;-68
2022/04/28 07:40:32;;;;;;;3.97;1.17;;;19.60;99.90;;;;;;5093523;28;20210;-68
2022/04/28 07:42:59;;;;;;;5.13;1.50;;;19.50;99.90;;;;;;5093323;28;20186;-69
2022/04/28 07:45:27;;;;;;;7.57;1.50;;;19.50;99.90;;;;;;5085862;28;20558;-68
2022/04/28 07:47:55;;;;;;;3.50;1.60;;;19.50;99.90;;;;;;5093298;28;20178;-68
2022/04/28 07:50:24;;;;;;;4.93;2.23;;;19.50;99.90;;;;;;5073074;28;20194;-69
2022/04/28 07:52:52;;;;;;;3.10;1.50;;;19.50;99.90;;;;;;5073279;28;20180;-69
2022/04/28 07:55:19;;;;;;;3.73;1.63;;;19.50;99.90;;;;;;5081658;28;20197;-69
2022/04/28 07:57:47;;;;;;;2.80;1.60;;;19.50;99.90;;;;;;5093149;28;20285;-69
2022/04/28 08:00:15;;;;;;;3.83;1.50;;;19.50;99.90;;;;;;5072866;28;20211;-69
2022/04/28 08:02:43;;;;;;;2.60;1.30;;;19.50;99.90;;;;;;5072968;28;20187;-69
2022/04/28 08:05:11;;;;;;;1.87;1.20;;;19.50;99.90;;;;;;5079483;28;20208;-69
2022/04/28 08:07:38;;;;;;;4.60;1.60;;;19.40;99.90;;;;;;5091602;28;20190;-69
2022/04/28 08:10:07;;;;;;;7.20;1.50;;;19.40;99.90;;;;;;5092821;28;20179;-69
2022/04/28 08:12:35;;;;;;;4.10;1.60;;;19.30;99.90;;;;;;5092883;28;20698;-68
2022/04/28 08:15:03;;;;;;;4.17;1.80;;;19.30;99.90;;;;;;5092418;28;20312;-68
2022/04/28 08:17:30;;;;;;;2.57;1.53;;;19.30;99.90;;;;;;5092893;28;20180;-68
2022/04/28 08:19:58;;;;;;;7.73;4.77;;;19.20;99.90;;;;;;5092667;28;20210;-68
2022/04/28 08:22:26;;;;;;;11.23;7.30;;;19.30;99.90;;;;;;5092825;28;20182;-68
2022/04/28 08:24:53;;;;;;;9.87;4.33;;;19.20;99.90;;;;;;5092384;28;20280;-69
2022/04/28 08:27:25;;;;;;;4.37;2.50;;;19.10;99.90;;;;;;5092725;28;20182;-68
2022/04/28 08:29:53;;;;;;;11.03;3.13;;;19.10;99.90;;;;;;5092560;28;20594;-69
2022/04/28 08:32:20;;;;;;;10.40;3.00;;;19.10;99.90;;;;;;5091282;28;20175;-67
2022/04/28 08:34:48;;;;;;;5.10;2.27;;;19.10;99.90;;;;;;5092442;28;20252;-69
2022/04/28 08:37:16;;;;;;;6.07;2.00;;;19.20;99.90;;;;;;5092595;28;20254;-69
2022/04/28 08:39:44;;;;;;;6.20;2.17;;;19.20;99.90;;;;;;5092453;28;20653;-69
2022/04/28 08:42:15;;;;;;;5.13;3.43;;;19.20;99.90;;;;;;5091024;28;20270;-68
2022/04/28 08:44:45;;;;;;;7.13;2.60;;;19.30;99.90;;;;;;5092107;28;20187;-70
2022/04/28 08:47:13;;;;;;;8.03;4.67;;;19.30;99.90;;;;;;5091923;28;20183;-68
2022/04/28 08:49:44;;;;;;;4.63;2.53;;;19.30;99.90;;;;;;5092456;28;20206;-68
2022/04/28 08:52:14;;;;;;;7.10;2.77;;;19.30;99.90;;;;;;5091905;28;20183;-69
2022/04/28 08:54:45;;;;;;;2.67;2.00;;;19.30;99.90;;;;;;5092225;28;20285;-68
2022/04/28 08:57:14;;;;;;;6.07;2.00;;;19.30;99.90;;;;;;5092399;28;20182;-67
2022/04/28 08:59:43;;;;;;;12.20;7.93;;;19.30;99.90;;;;;;5092121;28;20183;-68
2022/04/28 09:02:12;;;;;;;6.83;3.97;;;19.30;99.90;;;;;;5091833;28;20182;-69
2022/04/28 09:04:40;;;;;;;12.30;8.50;;;19.30;99.90;;;;;;5092560;28;20240;-69
2022/04/28 09:07:09;;;;;;;4.00;2.37;;;19.30;99.90;;;;;;5092515;28;20645;-69
2022/04/28 09:09:36;;;;;;;7.97;5.27;;;19.40;99.90;;;;;;5091942;28;20170;-68
2022/04/28 09:12:06;;;;;;;4.43;2.80;;;19.40;99.90;;;;;;5092264;28;20224;-67
2022/04/28 09:14:40;;;;;;;2.47;1.87;;;19.40;99.90;;;;;;5091606;28;20191;-69
2022/04/28 09:17:08;;;;;;;6.53;2.93;;;19.50;99.90;;;;;;5092263;28;20183;-69
2022/04/28 09:19:40;;;;;;;11.03;4.40;;;19.40;99.90;;;;;;5091948;28;20666;-70
2022/04/28 09:22:13;;;;;;;8.63;4.67;;;19.50;99.90;;;;;;5091356;28;20187;-69
2022/04/28 09:24:46;;;;;;;8.57;5.53;;;19.50;99.90;;;;;;5070455;28;20234;-69
2022/04/28 09:27:14;;;;;;;12.33;7.47;;;19.50;99.90;;;;;;5072619;28;20656;-69
2022/04/28 09:29:44;;;;;;;7.77;4.20;;;19.50;99.90;;;;;;5072874;28;20176;-70
2022/04/28 09:32:15;;;;;;;5.33;2.83;;;19.40;99.90;;;;;;5072923;28;20231;-71
2022/04/28 09:34:50;;;;;;;7.37;2.87;;;19.40;99.90;;;;;;5092897;28;20675;-72
2022/04/28 09:37:21;;;;;;;7.13;3.57;;;19.40;99.90;;;;;;5093367;28;20239;-70
2022/04/28 09:42:45;;;;;;;13.10;9.10;;;19.30;99.90;;;;;;5093361;28;20194;-71
2022/04/28 09:45:14;;;;;;;6.23;3.73;;;19.30;99.90;;;;;;5091627;28;20186;-71
2022/04/28 09:47:45;;;;;;;4.57;2.37;;;19.30;99.90;;;;;;5092894;28;20186;-69
2022/04/28 09:50:20;;;;;;;4.77;2.53;;;19.30;99.90;;;;;;5092285;28;20712;-70
2022/04/28 09:52:55;;;;;;;6.17;3.27;;;19.30;99.90;;;;;;5094638;28;20183;-70
2022/04/28 09:55:24;;;;;;;7.70;5.33;;;19.20;99.90;;;;;;5097364;28;20186;-71
2022/04/28 09:57:52;;;;;;;14.70;9.73;;;19.20;99.90;;;;;;5096740;28;20191;-69
2022/04/28 10:00:25;;;;;;;11.00;4.47;;;19.20;99.90;;;;;;5095954;28;20211;-70
2022/04/28 10:02:54;;;;;;;7.77;3.23;;;19.20;99.90;;;;;;5096792;28;20765;-71
2022/04/28 10:05:25;;;;;;;6.07;3.00;;;19.20;99.90;;;;;;5096612;28;20261;-70
2022/04/28 10:07:53;;;;;;;5.13;2.90;;;19.10;99.90;;;;;;5096612;28;20645;-70
2022/04/28 10:10:22;;;;;;;8.50;2.00;;;19.00;99.90;;;;;;5096712;28;20260;-70
2022/04/28 10:12:50;;;;;;;2.77;1.80;;;19.00;99.90;;;;;;5096530;28;20175;-70
2022/04/28 10:15:18;;;;;;;4.53;1.73;;;19.00;99.90;;;;;;5096517;28;20262;-71
2022/04/28 10:17:50;;;;;;;7.50;4.00;;;19.00;99.90;;;;;;5096798;28;20266;-70
2022/04/28 10:20:26;;;;;;;4.40;3.13;;;19.00;99.90;;;;;;5096357;28;20230;-71
2022/04/28 10:22:54;;;;;;;17.83;10.83;;;19.00;99.90;;;;;;5096453;28;20210;-70
2022/04/28 10:34:14;;;;;;;5.40;3.23;;;18.80;99.90;;;;;;5076227;28;20690;-70
2022/04/28 10:37:14;;;;;;;5.70;2.50;;;18.90;99.90;;;;;;5076089;28;20213;-70
2022/04/28 10:39:45;;;;;;;3.43;2.70;;;18.90;99.90;;;;;;5072617;28;20193;-69
2022/04/28 10:42:44;;;;;;;5.57;2.20;;;19.00;99.90;;;;;;5095733;28;20621;-70
2022/04/28 10:45:27;;;;;;;4.83;3.23;;;18.90;99.90;;;;;;5095337;28;20201;-69
2022/04/28 10:48:31;;;;;;;5.00;3.70;;;18.90;99.90;;;;;;5095875;28;20178;-69
2022/04/28 10:51:22;;;;;;;5.53;4.30;;;18.90;99.90;;;;;;5095860;28;20178;-70
2022/04/28 10:54:09;;;;;;;4.60;2.87;;;18.90;99.90;;;;;;5095854;28;20167;-69
2022/04/28 10:56:43;;;;;;;6.07;3.57;;;18.80;99.90;;;;;;5095466;28;20171;-69
2022/04/28 10:59:35;;;;;;;5.20;3.00;;;18.70;99.90;;;;;;5095746;28;20329;-70
2022/04/28 11:02:15;;;;;;;4.20;2.10;;;18.60;99.90;;;;;;5090807;28;20195;-70
2022/04/28 11:05:04;;;;;;;4.33;2.00;;;18.60;99.90;;;;;;5095295;28;20633;-70
2022/04/28 11:07:32;;;;;;;5.90;2.10;;;18.70;99.90;;;;;;5095516;28;20167;-69
2022/04/28 11:10:04;;;;;;;2.67;2.00;;;18.70;99.90;;;;;;5095512;28;20187;-69
2022/04/28 11:12:42;;;;;;;3.00;1.90;;;18.70;99.90;;;;;;5095315;28;20167;-70
2022/04/28 11:15:13;;;;;;;5.13;2.50;;;18.70;99.90;;;;;;5095250;28;20310;-70
2022/04/28 11:17:46;;;;;;;4.40;2.30;;;18.70;99.90;;;;;;5095390;28;20194;-69
2022/04/28 11:20:21;;;;;;;2.37;2.13;;;18.60;99.90;;;;;;5095222;28;20207;-70
2022/04/28 11:22:52;;;;;;;5.13;2.30;;;18.60;99.90;;;;;;5095927;28;20526;-70
2022/04/28 11:25:22;;;;;;;4.67;2.40;;;18.50;99.90;;;;;;5094637;28;20189;-69
2022/04/28 11:27:52;;;;;;;11.80;6.07;;;18.60;99.90;;;;;;5092065;28;20190;-69
2022/04/28 11:30:21;;;;;;;3.83;3.43;;;18.70;99.90;;;;;;5094781;28;20178;-70
2022/04/28 11:32:52;;;;;;;4.43;2.30;;;18.70;99.90;;;;;;5094479;28;20603;-69
2022/04/28 11:35:22;;;;;;;3.80;2.33;;;18.70;99.90;;;;;;5094968;28;20206;-70
2022/04/28 11:37:56;;;;;;;2.60;1.90;;;18.80;99.90;;;;;;5094859;28;20222;-70
2022/04/28 11:40:24;;;;;;;5.20;2.27;;;18.90;99.90;;;;;;5094742;28;20215;-70
2022/04/28 11:43:03;;;;;;;4.97;1.83;;;18.90;99.90;;;;;;5093542;28;20510;-69
2022/04/28 11:45:33;;;;;;;5.90;1.80;;;18.90;99.90;;;;;;5094755;28;20206;-70
2022/04/28 11:48:03;;;;;;;2.93;2.20;;;19.00;99.90;;;;;;5094587;28;20445;-69
2022/04/28 11:50:34;;;;;;;3.90;2.37;;;19.00;99.90;;;;;;5094529;28;20194;-69
2022/04/28 11:53:09;;;;;;;3.97;2.60;;;18.90;99.90;;;;;;5093480;28;20236;-70
2022/04/28 11:55:40;;;;;;;2.60;2.00;;;18.90;99.90;;;;;;5094695;28;20182;-69
2022/04/28 11:58:10;;;;;;;6.00;2.40;;;18.90;99.90;;;;;;5092362;28;20202;-70
2022/04/28 12:00:39;;;;;;;2.73;1.93;;;18.80;99.90;;;;;;5094267;28;20225;-71
2022/04/28 12:03:08;;;;;;;4.77;2.50;;;18.80;99.90;;;;;;5094466;28;20572;-70
2022/04/28 12:05:36;;;;;;;4.03;2.10;;;18.80;99.90;;;;;;5094142;28;20503;-71
2022/04/28 12:08:04;;;;;;;6.83;2.20;;;18.80;99.90;;;;;;5092469;28;20183;-70
2022/04/28 12:16:18;;;;;;;6.23;2.13;;;18.70;99.90;;;;;;5093001;28;20273;-70
2022/04/28 12:21:42;;;;;;;5.37;2.40;;;18.50;99.90;;;;;;5093564;28;20235;-69
2022/04/28 12:24:18;;;;;;;3.03;2.30;;;18.40;99.90;;;;;;5082295;28;20690;-71
2022/04/28 12:26:48;;;;;;;4.67;2.70;;;18.40;99.90;;;;;;5093211;28;20189;-70
2022/04/28 12:29:19;;;;;;;3.00;2.17;;;18.30;99.90;;;;;;5093228;28;20236;-70
2022/04/28 12:31:54;;;;;;;4.00;2.00;;;18.20;99.90;;;;;;5093317;28;20179;-70
2022/04/28 12:34:25;;;;;;;4.80;2.20;;;18.10;99.90;;;;;;5091835;28;21966;-70
2022/04/28 12:36:58;;;;;;;2.93;2.00;;;18.10;99.90;;;;;;5093109;28;20241;-70
2022/04/28 12:39:29;;;;;;;3.67;2.03;;;18.00;99.90;;;;;;5093174;28;20640;-70
2022/04/28 12:41:56;;;;;;;2.07;1.87;;;18.00;99.90;;;;;;5093265;28;20211;-70
2022/04/28 12:44:24;;;;;;;3.13;2.80;;;17.90;99.90;;;;;;5092779;28;21941;-70
2022/04/28 12:47:04;;;;;;;2.87;2.50;;;17.90;99.90;;;;;;5093464;28;20527;-70
2022/04/28 12:49:45;;;;;;;3.53;2.23;;;17.80;99.90;;;;;;5093160;28;20644;-71
2022/04/28 12:52:27;;;;;;;4.27;2.57;;;17.80;99.90;;;;;;5092056;28;20185;-71
2022/04/28 12:55:15;;;;;;;4.27;2.97;;;17.80;99.90;;;;;;5093629;28;20175;-70
2022/04/28 12:57:43;;;;;;;6.30;2.30;;;17.80;99.90;;;;;;5093039;28;20605;-69
2022/04/28 13:00:12;;;;;;;5.20;2.80;;;17.80;99.90;;;;;;5093285;28;20252;-69
2022/04/28 13:02:47;;;;;;;4.90;2.30;;;17.70;99.90;;;;;;5092955;28;20240;-71
2022/04/28 13:05:18;;;;;;;3.17;2.50;;;17.60;99.90;;;;;;5093206;28;20179;-71
2022/04/28 13:07:46;;;;;;;7.87;3.07;;;17.50;99.90;;;;;;5093247;28;20175;-69
2022/04/28 13:10:15;;;;;;;5.90;2.63;;;17.50;99.90;;;;;;5093473;28;20182;-71
2022/04/28 13:12:43;;;;;;;7.90;3.40;;;17.40;99.90;;;;;;5092947;28;20214;-71
2022/04/28 13:15:13;;;;;;;3.87;2.70;;;17.40;99.90;;;;;;5093151;28;20298;-70
2022/04/28 13:17:41;;;;;;;7.73;3.90;;;17.30;99.90;;;;;;5092703;28;20202;-69
2022/04/28 13:20:09;;;;;;;4.07;3.40;;;17.30;99.90;;;;;;5073005;28;20677;-71
2022/04/28 13:22:36;;;;;;;7.20;3.83;;;17.20;99.90;;;;;;5073059;28;20174;-69
2022/04/28 13:25:05;;;;;;;7.50;3.50;;;17.30;99.90;;;;;;5073134;28;20182;-69
2022/04/28 13:27:32;;;;;;;4.93;3.43;;;17.20;99.90;;;;;;5090041;28;20185;-70
2022/04/28 13:30:00;;;;;;;4.43;2.93;;;17.10;99.90;;;;;;5097203;28;20213;-69
2022/04/28 13:32:28;;;;;;;4.33;3.00;;;17.20;99.90;;;;;;5097347;28;20183;-69
2022/04/28 13:34:55;;;;;;;6.17;3.40;;;17.20;99.90;;;;;;5096800;28;20175;-69